sensor_id;sensor_type;location;lat;lon;timestamp;P1;durP1;ratioP1;P2;durP2;ratioP2
74177;SDS011;62540;48.456;-4.456;2023-07-08T00:02:10;6.00;;;4.50;;
74177;SDS011;62540;48.456;-4.456;2023-07-08T00:04:36;3.50;;;3.50;;
74177;SDS011;62540;48.456;-4.456;2023-07-08T00:07:03;6.00;;;4.00;;
74177;SDS011;62540;48.456;-4.456;2023-07-08T00:09:28;4.50;;;3.75;;
74177;SDS011;62540;48.456;-4.456;2023-07-08T00:11:55;4.00;;;4.00;;
74177;SDS011;62540;48.456;-4.456;2023-07-08T00:14:21;5.00;;;3.25;;
74177;SDS011;62540;48.456;-4.456;2023-07-08T00:16:47;3.75;;;3.00;;
74177;SDS011;62540;48.456;-4.456;2023-07-08T00:19:12;4.00;;;3.00;;
74177;SDS011;62540;48.456;-4.456;2023-07-08T00:21:38;4.25;;;4.25;;
74177;SDS011;62540;48.456;-4.456;2023-07-08T00:24:03;4.75;;;4.75;;
74177;SDS011;62540;48.456;-4.456;2023-07-08T00:26:29;5.00;;;5.00;;
74177;SDS011;62540;48.456;-4.456;2023-07-08T00:28:55;5.00;;;4.00;;
74177;SDS011;62540;48.456;-4.456;2023-07-08T00:31:22;5.00;;;5.00;;
74177;SDS011;62540;48.456;-4.456;2023-07-08T00:33:49;4.25;;;3.25;;
74177;SDS011;62540;48.456;-4.456;2023-07-08T00:36:15;4.00;;;3.00;;
74177;SDS011;62540;48.456;-4.456;2023-07-08T00:38:42;4.75;;;4.00;;
74177;SDS011;62540;48.456;-4.456;2023-07-08T00:41:20;3.75;;;3.75;;
74177;SDS011;62540;48.456;-4.456;2023-07-08T00:43:51;4.00;;;3.25;;
74177;SDS011;62540;48.456;-4.456;2023-07-08T00:47:02;4.00;;;4.00;;
74177;SDS011;62540;48.456;-4.456;2023-07-08T00:51:51;5.00;;;5.00;;
74177;SDS011;62540;48.456;-4.456;2023-07-08T00:54:18;4.00;;;4.00;;
74177;SDS011;62540;48.456;-4.456;2023-07-08T00:56:46;5.00;;;4.00;;
74177;SDS011;62540;48.456;-4.456;2023-07-08T00:59:38;4.50;;;4.50;;
74177;SDS011;62540;48.456;-4.456;2023-07-08T01:02:09;3.25;;;2.75;;
74177;SDS011;62540;48.456;-4.456;2023-07-08T01:04:39;3.50;;;3.00;;
74177;SDS011;62540;48.456;-4.456;2023-07-08T01:07:09;4.00;;;3.25;;
74177;SDS011;62540;48.456;-4.456;2023-07-08T01:09:37;5.00;;;3.00;;
74177;SDS011;62540;48.456;-4.456;2023-07-08T01:12:13;4.00;;;4.00;;
74177;SDS011;62540;48.456;-4.456;2023-07-08T01:14:43;5.75;;;4.25;;
74177;SDS011;62540;48.456;-4.456;2023-07-08T01:17:09;3.75;;;3.00;;
74177;SDS011;62540;48.456;-4.456;2023-07-08T01:19:39;6.25;;;4.00;;
74177;SDS011;62540;48.456;-4.456;2023-07-08T01:22:06;4.00;;;3.25;;
74177;SDS011;62540;48.456;-4.456;2023-07-08T01:24:36;3.00;;;3.00;;
74177;SDS011;62540;48.456;-4.456;2023-07-08T01:27:04;4.75;;;3.50;;
74177;SDS011;62540;48.456;-4.456;2023-07-08T01:29:31;2.25;;;2.25;;
74177;SDS011;62540;48.456;-4.456;2023-07-08T01:31:57;4.00;;;3.00;;
74177;SDS011;62540;48.456;-4.456;2023-07-08T01:34:27;4.00;;;4.00;;
74177;SDS011;62540;48.456;-4.456;2023-07-08T01:36:54;4.25;;;3.75;;
74177;SDS011;62540;48.456;-4.456;2023-07-08T01:39:22;4.75;;;3.75;;
74177;SDS011;62540;48.456;-4.456;2023-07-08T01:41:48;4.00;;;3.25;;
74177;SDS011;62540;48.456;-4.456;2023-07-08T01:44:33;4.50;;;4.25;;
74177;SDS011;62540;48.456;-4.456;2023-07-08T01:47:08;3.50;;;3.50;;
74177;SDS011;62540;48.456;-4.456;2023-07-08T01:49:37;3.00;;;3.00;;
74177;SDS011;62540;48.456;-4.456;2023-07-08T01:52:05;4.75;;;3.75;;
74177;SDS011;62540;48.456;-4.456;2023-07-08T01:54:32;3.00;;;3.00;;
74177;SDS011;62540;48.456;-4.456;2023-07-08T01:56:57;4.50;;;4.00;;
74177;SDS011;62540;48.456;-4.456;2023-07-08T01:59:23;4.25;;;3.50;;
74177;SDS011;62540;48.456;-4.456;2023-07-08T02:01:49;3.75;;;3.75;;
74177;SDS011;62540;48.456;-4.456;2023-07-08T02:04:19;4.00;;;3.00;;
74177;SDS011;62540;48.456;-4.456;2023-07-08T02:06:50;4.75;;;3.00;;
74177;SDS011;62540;48.456;-4.456;2023-07-08T02:09:19;7.00;;;4.25;;
74177;SDS011;62540;48.456;-4.456;2023-07-08T02:11:45;5.00;;;3.00;;
74177;SDS011;62540;48.456;-4.456;2023-07-08T02:14:10;4.00;;;3.75;;
74177;SDS011;62540;48.456;-4.456;2023-07-08T02:16:36;4.50;;;3.50;;
74177;SDS011;62540;48.456;-4.456;2023-07-08T02:19:01;2.25;;;2.25;;
74177;SDS011;62540;48.456;-4.456;2023-07-08T02:21:26;3.25;;;2.00;;
74177;SDS011;62540;48.456;-4.456;2023-07-08T02:23:55;5.50;;;3.25;;
74177;SDS011;62540;48.456;-4.456;2023-07-08T02:26:21;3.75;;;2.00;;
74177;SDS011;62540;48.456;-4.456;2023-07-08T02:28:46;3.50;;;3.50;;
74177;SDS011;62540;48.456;-4.456;2023-07-08T02:31:12;3.50;;;3.00;;
74177;SDS011;62540;48.456;-4.456;2023-07-08T02:33:37;4.25;;;2.25;;
74177;SDS011;62540;48.456;-4.456;2023-07-08T02:36:03;3.00;;;3.00;;
74177;SDS011;62540;48.456;-4.456;2023-07-08T02:38:28;3.00;;;3.00;;
74177;SDS011;62540;48.456;-4.456;2023-07-08T02:40:53;3.75;;;3.75;;
74177;SDS011;62540;48.456;-4.456;2023-07-08T02:43:19;4.00;;;3.25;;
74177;SDS011;62540;48.456;-4.456;2023-07-08T02:45:44;4.25;;;3.50;;
74177;SDS011;62540;48.456;-4.456;2023-07-08T02:48:10;3.25;;;2.00;;
74177;SDS011;62540;48.456;-4.456;2023-07-08T02:50:35;5.75;;;3.25;;
74177;SDS011;62540;48.456;-4.456;2023-07-08T02:53:00;4.25;;;3.50;;
74177;SDS011;62540;48.456;-4.456;2023-07-08T02:55:26;3.25;;;2.25;;
74177;SDS011;62540;48.456;-4.456;2023-07-08T02:57:51;3.25;;;2.75;;
74177;SDS011;62540;48.456;-4.456;2023-07-08T03:00:17;3.50;;;2.75;;
74177;SDS011;62540;48.456;-4.456;2023-07-08T03:02:43;5.50;;;3.00;;
74177;SDS011;62540;48.456;-4.456;2023-07-08T03:05:08;4.75;;;3.00;;
74177;SDS011;62540;48.456;-4.456;2023-07-08T03:07:33;2.00;;;2.00;;
74177;SDS011;62540;48.456;-4.456;2023-07-08T03:09:59;2.75;;;2.25;;
74177;SDS011;62540;48.456;-4.456;2023-07-08T03:12:24;3.00;;;2.50;;
74177;SDS011;62540;48.456;-4.456;2023-07-08T03:14:50;4.00;;;3.00;;
74177;SDS011;62540;48.456;-4.456;2023-07-08T03:17:15;3.00;;;3.00;;
74177;SDS011;62540;48.456;-4.456;2023-07-08T03:19:41;2.00;;;1.75;;
74177;SDS011;62540;48.456;-4.456;2023-07-08T03:22:07;2.00;;;2.00;;
74177;SDS011;62540;48.456;-4.456;2023-07-08T03:24:32;2.50;;;2.00;;
74177;SDS011;62540;48.456;-4.456;2023-07-08T03:26:58;3.25;;;2.00;;
74177;SDS011;62540;48.456;-4.456;2023-07-08T03:29:25;3.00;;;3.00;;
74177;SDS011;62540;48.456;-4.456;2023-07-08T03:31:50;4.00;;;3.00;;
74177;SDS011;62540;48.456;-4.456;2023-07-08T03:34:17;2.25;;;2.25;;
74177;SDS011;62540;48.456;-4.456;2023-07-08T03:36:46;1.50;;;1.00;;
74177;SDS011;62540;48.456;-4.456;2023-07-08T03:39:18;2.50;;;2.00;;
74177;SDS011;62540;48.456;-4.456;2023-07-08T03:41:48;4.00;;;3.00;;
74177;SDS011;62540;48.456;-4.456;2023-07-08T03:44:14;5.75;;;3.00;;
74177;SDS011;62540;48.456;-4.456;2023-07-08T03:46:43;1.25;;;1.25;;
74177;SDS011;62540;48.456;-4.456;2023-07-08T03:49:14;2.25;;;1.00;;
74177;SDS011;62540;48.456;-4.456;2023-07-08T03:51:40;2.00;;;2.00;;
74177;SDS011;62540;48.456;-4.456;2023-07-08T03:54:07;4.25;;;3.75;;
74177;SDS011;62540;48.456;-4.456;2023-07-08T03:56:36;3.25;;;2.00;;
74177;SDS011;62540;48.456;-4.456;2023-07-08T03:59:02;2.25;;;2.25;;
74177;SDS011;62540;48.456;-4.456;2023-07-08T04:01:28;3.00;;;3.00;;
74177;SDS011;62540;48.456;-4.456;2023-07-08T04:03:54;3.00;;;2.00;;
74177;SDS011;62540;48.456;-4.456;2023-07-08T04:06:21;2.00;;;2.00;;
74177;SDS011;62540;48.456;-4.456;2023-07-08T04:08:47;3.00;;;2.00;;
74177;SDS011;62540;48.456;-4.456;2023-07-08T04:11:13;2.50;;;2.00;;
74177;SDS011;62540;48.456;-4.456;2023-07-08T04:13:40;1.75;;;1.75;;
74177;SDS011;62540;48.456;-4.456;2023-07-08T04:16:06;3.00;;;2.00;;
74177;SDS011;62540;48.456;-4.456;2023-07-08T04:18:33;2.25;;;2.00;;
74177;SDS011;62540;48.456;-4.456;2023-07-08T04:20:58;3.00;;;3.00;;
74177;SDS011;62540;48.456;-4.456;2023-07-08T04:23:24;2.00;;;2.00;;
74177;SDS011;62540;48.456;-4.456;2023-07-08T04:25:50;2.00;;;2.00;;
74177;SDS011;62540;48.456;-4.456;2023-07-08T04:28:20;2.00;;;2.00;;
74177;SDS011;62540;48.456;-4.456;2023-07-08T04:30:45;3.50;;;3.00;;
74177;SDS011;62540;48.456;-4.456;2023-07-08T04:33:12;3.50;;;3.00;;
74177;SDS011;62540;48.456;-4.456;2023-07-08T04:35:39;4.00;;;2.25;;
74177;SDS011;62540;48.456;-4.456;2023-07-08T04:38:06;3.00;;;3.00;;
74177;SDS011;62540;48.456;-4.456;2023-07-08T04:40:39;3.00;;;2.25;;
74177;SDS011;62540;48.456;-4.456;2023-07-08T04:43:07;2.00;;;2.00;;
74177;SDS011;62540;48.456;-4.456;2023-07-08T04:45:35;5.25;;;3.00;;
74177;SDS011;62540;48.456;-4.456;2023-07-08T04:48:05;3.00;;;2.00;;
74177;SDS011;62540;48.456;-4.456;2023-07-08T04:50:33;3.00;;;2.00;;
74177;SDS011;62540;48.456;-4.456;2023-07-08T04:52:59;3.50;;;3.00;;
74177;SDS011;62540;48.456;-4.456;2023-07-08T04:55:25;2.00;;;2.00;;
74177;SDS011;62540;48.456;-4.456;2023-07-08T04:57:50;3.50;;;2.00;;
74177;SDS011;62540;48.456;-4.456;2023-07-08T05:00:16;2.25;;;1.75;;
74177;SDS011;62540;48.456;-4.456;2023-07-08T05:02:44;2.25;;;2.25;;
74177;SDS011;62540;48.456;-4.456;2023-07-08T05:05:09;3.50;;;2.50;;
74177;SDS011;62540;48.456;-4.456;2023-07-08T05:07:35;3.50;;;3.00;;
74177;SDS011;62540;48.456;-4.456;2023-07-08T05:10:00;2.00;;;2.00;;
74177;SDS011;62540;48.456;-4.456;2023-07-08T05:12:26;5.25;;;3.50;;
74177;SDS011;62540;48.456;-4.456;2023-07-08T05:14:52;2.25;;;2.00;;
74177;SDS011;62540;48.456;-4.456;2023-07-08T05:17:17;2.25;;;2.00;;
74177;SDS011;62540;48.456;-4.456;2023-07-08T05:19:43;3.50;;;2.00;;
74177;SDS011;62540;48.456;-4.456;2023-07-08T05:22:10;2.50;;;2.50;;
74177;SDS011;62540;48.456;-4.456;2023-07-08T05:24:36;2.75;;;2.25;;
74177;SDS011;62540;48.456;-4.456;2023-07-08T05:27:02;2.25;;;1.75;;
74177;SDS011;62540;48.456;-4.456;2023-07-08T05:29:28;1.75;;;1.75;;
74177;SDS011;62540;48.456;-4.456;2023-07-08T05:31:53;3.25;;;2.25;;
74177;SDS011;62540;48.456;-4.456;2023-07-08T05:34:19;3.00;;;3.00;;
74177;SDS011;62540;48.456;-4.456;2023-07-08T05:36:44;2.00;;;2.00;;
74177;SDS011;62540;48.456;-4.456;2023-07-08T05:39:10;2.50;;;2.25;;
74177;SDS011;62540;48.456;-4.456;2023-07-08T05:41:35;3.75;;;3.25;;
74177;SDS011;62540;48.456;-4.456;2023-07-08T05:44:01;2.25;;;2.00;;
74177;SDS011;62540;48.456;-4.456;2023-07-08T05:46:26;1.50;;;1.00;;
74177;SDS011;62540;48.456;-4.456;2023-07-08T05:48:51;3.25;;;1.50;;
74177;SDS011;62540;48.456;-4.456;2023-07-08T05:51:17;3.00;;;2.00;;
74177;SDS011;62540;48.456;-4.456;2023-07-08T05:53:43;2.00;;;2.00;;
74177;SDS011;62540;48.456;-4.456;2023-07-08T05:56:08;2.50;;;2.00;;
74177;SDS011;62540;48.456;-4.456;2023-07-08T05:58:34;2.50;;;2.00;;
74177;SDS011;62540;48.456;-4.456;2023-07-08T06:00:59;3.50;;;2.00;;
74177;SDS011;62540;48.456;-4.456;2023-07-08T06:03:25;3.00;;;2.75;;
74177;SDS011;62540;48.456;-4.456;2023-07-08T06:05:50;1.25;;;1.00;;
74177;SDS011;62540;48.456;-4.456;2023-07-08T06:08:16;3.25;;;2.75;;
74177;SDS011;62540;48.456;-4.456;2023-07-08T06:10:42;4.25;;;2.75;;
74177;SDS011;62540;48.456;-4.456;2023-07-08T06:13:11;1.50;;;1.50;;
74177;SDS011;62540;48.456;-4.456;2023-07-08T06:15:38;1.75;;;1.00;;
74177;SDS011;62540;48.456;-4.456;2023-07-08T06:18:04;4.00;;;2.00;;
74177;SDS011;62540;48.456;-4.456;2023-07-08T06:20:29;3.00;;;2.00;;
74177;SDS011;62540;48.456;-4.456;2023-07-08T06:22:55;2.25;;;1.00;;
74177;SDS011;62540;48.456;-4.456;2023-07-08T06:25:21;2.00;;;2.00;;
74177;SDS011;62540;48.456;-4.456;2023-07-08T06:27:46;1.50;;;1.00;;
74177;SDS011;62540;48.456;-4.456;2023-07-08T06:30:12;3.00;;;2.25;;
74177;SDS011;62540;48.456;-4.456;2023-07-08T06:32:37;2.50;;;2.25;;
74177;SDS011;62540;48.456;-4.456;2023-07-08T06:35:03;1.00;;;1.00;;
74177;SDS011;62540;48.456;-4.456;2023-07-08T06:37:28;3.25;;;3.00;;
74177;SDS011;62540;48.456;-4.456;2023-07-08T06:39:54;1.00;;;1.00;;
74177;SDS011;62540;48.456;-4.456;2023-07-08T06:42:19;2.00;;;2.00;;
74177;SDS011;62540;48.456;-4.456;2023-07-08T06:44:45;2.00;;;1.25;;
74177;SDS011;62540;48.456;-4.456;2023-07-08T06:47:16;4.00;;;2.00;;
74177;SDS011;62540;48.456;-4.456;2023-07-08T06:49:42;2.00;;;2.00;;
74177;SDS011;62540;48.456;-4.456;2023-07-08T06:52:08;2.00;;;1.25;;
74177;SDS011;62540;48.456;-4.456;2023-07-08T06:54:34;0.50;;;0.50;;
74177;SDS011;62540;48.456;-4.456;2023-07-08T06:56:59;1.25;;;1.25;;
74177;SDS011;62540;48.456;-4.456;2023-07-08T06:59:24;3.00;;;1.00;;
74177;SDS011;62540;48.456;-4.456;2023-07-08T07:01:50;2.00;;;1.50;;
74177;SDS011;62540;48.456;-4.456;2023-07-08T07:04:15;1.75;;;1.50;;
74177;SDS011;62540;48.456;-4.456;2023-07-08T07:06:40;1.50;;;1.00;;
74177;SDS011;62540;48.456;-4.456;2023-07-08T07:09:06;2.00;;;1.25;;
74177;SDS011;62540;48.456;-4.456;2023-07-08T07:11:31;2.00;;;1.25;;
74177;SDS011;62540;48.456;-4.456;2023-07-08T07:13:56;2.00;;;1.00;;
74177;SDS011;62540;48.456;-4.456;2023-07-08T07:16:22;1.00;;;1.00;;
74177;SDS011;62540;48.456;-4.456;2023-07-08T07:18:47;2.00;;;2.00;;
74177;SDS011;62540;48.456;-4.456;2023-07-08T07:21:14;2.50;;;2.00;;
74177;SDS011;62540;48.456;-4.456;2023-07-08T07:23:40;1.50;;;1.00;;
74177;SDS011;62540;48.456;-4.456;2023-07-08T07:26:05;3.50;;;2.25;;
74177;SDS011;62540;48.456;-4.456;2023-07-08T07:28:32;3.00;;;1.50;;
74177;SDS011;62540;48.456;-4.456;2023-07-08T07:30:58;2.00;;;1.00;;
74177;SDS011;62540;48.456;-4.456;2023-07-08T07:33:24;3.00;;;2.75;;
74177;SDS011;62540;48.456;-4.456;2023-07-08T07:35:50;0.00;;;0.00;;
74177;SDS011;62540;48.456;-4.456;2023-07-08T07:38:15;0.50;;;0.50;;
74177;SDS011;62540;48.456;-4.456;2023-07-08T07:40:41;1.00;;;0.25;;
74177;SDS011;62540;48.456;-4.456;2023-07-08T07:43:07;1.50;;;1.00;;
74177;SDS011;62540;48.456;-4.456;2023-07-08T07:45:32;1.00;;;1.00;;
74177;SDS011;62540;48.456;-4.456;2023-07-08T07:47:57;2.00;;;1.50;;
74177;SDS011;62540;48.456;-4.456;2023-07-08T07:50:23;1.00;;;1.00;;
74177;SDS011;62540;48.456;-4.456;2023-07-08T07:52:48;0.25;;;0.00;;
74177;SDS011;62540;48.456;-4.456;2023-07-08T07:55:14;1.00;;;0.00;;
74177;SDS011;62540;48.456;-4.456;2023-07-08T07:57:39;1.00;;;0.00;;
74177;SDS011;62540;48.456;-4.456;2023-07-08T08:00:06;1.50;;;0.50;;
74177;SDS011;62540;48.456;-4.456;2023-07-08T08:02:33;1.00;;;1.00;;
74177;SDS011;62540;48.456;-4.456;2023-07-08T08:04:59;1.00;;;0.00;;
74177;SDS011;62540;48.456;-4.456;2023-07-08T08:07:24;0.50;;;0.00;;
74177;SDS011;62540;48.456;-4.456;2023-07-08T08:09:50;0.50;;;0.00;;
74177;SDS011;62540;48.456;-4.456;2023-07-08T08:12:15;1.00;;;1.00;;
74177;SDS011;62540;48.456;-4.456;2023-07-08T08:14:41;0.00;;;0.00;;
74177;SDS011;62540;48.456;-4.456;2023-07-08T08:17:06;1.00;;;1.00;;
74177;SDS011;62540;48.456;-4.456;2023-07-08T08:19:31;0.00;;;0.00;;
74177;SDS011;62540;48.456;-4.456;2023-07-08T08:21:57;0.00;;;0.00;;
74177;SDS011;62540;48.456;-4.456;2023-07-08T08:24:23;2.75;;;0.50;;
74177;SDS011;62540;48.456;-4.456;2023-07-08T08:26:48;1.25;;;0.50;;
74177;SDS011;62540;48.456;-4.456;2023-07-08T08:29:13;0.00;;;0.00;;
74177;SDS011;62540;48.456;-4.456;2023-07-08T08:31:39;0.75;;;0.75;;
74177;SDS011;62540;48.456;-4.456;2023-07-08T08:34:04;1.00;;;0.00;;
74177;SDS011;62540;48.456;-4.456;2023-07-08T08:36:30;1.00;;;0.00;;
74177;SDS011;62540;48.456;-4.456;2023-07-08T08:38:55;1.00;;;0.25;;
74177;SDS011;62540;48.456;-4.456;2023-07-08T08:41:25;1.50;;;0.25;;
74177;SDS011;62540;48.456;-4.456;2023-07-08T08:43:56;0.75;;;0.00;;
74177;SDS011;62540;48.456;-4.456;2023-07-08T08:46:39;1.25;;;0.25;;
74177;SDS011;62540;48.456;-4.456;2023-07-08T08:49:43;0.00;;;0.00;;
74177;SDS011;62540;48.456;-4.456;2023-07-08T08:52:12;1.25;;;1.00;;
74177;SDS011;62540;48.456;-4.456;2023-07-08T08:54:39;2.50;;;0.75;;
74177;SDS011;62540;48.456;-4.456;2023-07-08T08:59:44;1.00;;;0.00;;
74177;SDS011;62540;48.456;-4.456;2023-07-08T09:02:25;1.25;;;0.00;;
74177;SDS011;62540;48.456;-4.456;2023-07-08T09:04:52;2.50;;;1.25;;
74177;SDS011;62540;48.456;-4.456;2023-07-08T09:07:18;1.00;;;1.00;;
74177;SDS011;62540;48.456;-4.456;2023-07-08T09:10:02;0.75;;;0.50;;
74177;SDS011;62540;48.456;-4.456;2023-07-08T09:12:44;1.00;;;0.75;;
74177;SDS011;62540;48.456;-4.456;2023-07-08T09:15:13;0.00;;;0.00;;
74177;SDS011;62540;48.456;-4.456;2023-07-08T09:17:40;0.00;;;0.00;;
74177;SDS011;62540;48.456;-4.456;2023-07-08T09:22:48;0.25;;;0.00;;
74177;SDS011;62540;48.456;-4.456;2023-07-08T09:25:33;0.25;;;0.00;;
74177;SDS011;62540;48.456;-4.456;2023-07-08T09:28:03;0.00;;;0.00;;
74177;SDS011;62540;48.456;-4.456;2023-07-08T09:30:28;0.25;;;0.25;;
74177;SDS011;62540;48.456;-4.456;2023-07-08T09:32:55;0.75;;;0.00;;
74177;SDS011;62540;48.456;-4.456;2023-07-08T09:35:28;0.75;;;0.00;;
74177;SDS011;62540;48.456;-4.456;2023-07-08T09:38:06;0.00;;;0.00;;
74177;SDS011;62540;48.456;-4.456;2023-07-08T09:40:32;0.00;;;0.00;;
74177;SDS011;62540;48.456;-4.456;2023-07-08T09:43:00;0.00;;;0.00;;
74177;SDS011;62540;48.456;-4.456;2023-07-08T09:45:28;0.00;;;0.00;;
74177;SDS011;62540;48.456;-4.456;2023-07-08T09:48:04;0.00;;;0.00;;
74177;SDS011;62540;48.456;-4.456;2023-07-08T09:50:59;0.75;;;0.00;;
74177;SDS011;62540;48.456;-4.456;2023-07-08T09:53:24;0.00;;;0.00;;
74177;SDS011;62540;48.456;-4.456;2023-07-08T09:55:51;0.00;;;0.00;;
74177;SDS011;62540;48.456;-4.456;2023-07-08T09:58:51;0.25;;;0.00;;
74177;SDS011;62540;48.456;-4.456;2023-07-08T10:01:15;0.00;;;0.00;;
74177;SDS011;62540;48.456;-4.456;2023-07-08T10:03:47;0.25;;;0.00;;
74177;SDS011;62540;48.456;-4.456;2023-07-08T10:06:24;0.00;;;0.00;;
74177;SDS011;62540;48.456;-4.456;2023-07-08T10:08:53;1.25;;;0.00;;
74177;SDS011;62540;48.456;-4.456;2023-07-08T10:13:52;0.50;;;0.25;;
74177;SDS011;62540;48.456;-4.456;2023-07-08T10:16:24;0.00;;;0.00;;
74177;SDS011;62540;48.456;-4.456;2023-07-08T10:18:54;0.00;;;0.00;;
74177;SDS011;62540;48.456;-4.456;2023-07-08T10:21:41;1.00;;;0.00;;
74177;SDS011;62540;48.456;-4.456;2023-07-08T10:26:57;1.75;;;0.50;;
74177;SDS011;62540;48.456;-4.456;2023-07-08T10:29:33;1.00;;;0.75;;
74177;SDS011;62540;48.456;-4.456;2023-07-08T10:32:23;0.00;;;0.00;;
74177;SDS011;62540;48.456;-4.456;2023-07-08T10:40:12;2.00;;;0.75;;
74177;SDS011;62540;48.456;-4.456;2023-07-08T10:45:16;2.00;;;0.00;;
74177;SDS011;62540;48.456;-4.456;2023-07-08T11:01:21;0.50;;;0.00;;
74177;SDS011;62540;48.456;-4.456;2023-07-08T11:09:44;0.00;;;0.00;;
74177;SDS011;62540;48.456;-4.456;2023-07-08T11:15:20;3.25;;;1.00;;
74177;SDS011;62540;48.456;-4.456;2023-07-08T11:17:53;3.00;;;0.50;;
74177;SDS011;62540;48.456;-4.456;2023-07-08T11:20:25;0.00;;;0.00;;
74177;SDS011;62540;48.456;-4.456;2023-07-08T11:25:41;1.25;;;1.00;;
74177;SDS011;62540;48.456;-4.456;2023-07-08T11:28:10;3.50;;;0.75;;
74177;SDS011;62540;48.456;-4.456;2023-07-08T11:30:42;1.50;;;0.50;;
74177;SDS011;62540;48.456;-4.456;2023-07-08T11:33:11;0.00;;;0.00;;
74177;SDS011;62540;48.456;-4.456;2023-07-08T11:38:19;0.25;;;0.00;;
74177;SDS011;62540;48.456;-4.456;2023-07-08T11:41:01;0.75;;;0.75;;
74177;SDS011;62540;48.456;-4.456;2023-07-08T11:43:37;2.25;;;1.50;;
74177;SDS011;62540;48.456;-4.456;2023-07-08T11:46:23;1.00;;;0.00;;
74177;SDS011;62540;48.456;-4.456;2023-07-08T11:48:56;1.00;;;0.00;;
74177;SDS011;62540;48.456;-4.456;2023-07-08T11:51:27;0.00;;;0.00;;
74177;SDS011;62540;48.456;-4.456;2023-07-08T11:59:21;0.75;;;0.50;;
74177;SDS011;62540;48.456;-4.456;2023-07-08T12:02:09;0.50;;;0.50;;
74177;SDS011;62540;48.456;-4.456;2023-07-08T12:07:29;1.00;;;1.00;;
74177;SDS011;62540;48.456;-4.456;2023-07-08T12:10:25;0.50;;;0.50;;
74177;SDS011;62540;48.456;-4.456;2023-07-08T12:13:05;1.50;;;1.00;;
74177;SDS011;62540;48.456;-4.456;2023-07-08T12:15:37;1.25;;;0.00;;
74177;SDS011;62540;48.456;-4.456;2023-07-08T12:18:22;1.75;;;1.00;;
74177;SDS011;62540;48.456;-4.456;2023-07-08T12:20:57;0.25;;;0.25;;
74177;SDS011;62540;48.456;-4.456;2023-07-08T12:23:26;0.75;;;0.00;;
74177;SDS011;62540;48.456;-4.456;2023-07-08T12:25:52;1.25;;;0.00;;
74177;SDS011;62540;48.456;-4.456;2023-07-08T12:28:19;1.00;;;1.00;;
74177;SDS011;62540;48.456;-4.456;2023-07-08T12:30:46;1.50;;;0.50;;
74177;SDS011;62540;48.456;-4.456;2023-07-08T12:33:13;1.00;;;0.00;;
74177;SDS011;62540;48.456;-4.456;2023-07-08T12:35:41;0.25;;;0.00;;
74177;SDS011;62540;48.456;-4.456;2023-07-08T12:40:40;0.75;;;0.75;;
74177;SDS011;62540;48.456;-4.456;2023-07-08T12:43:07;0.50;;;0.00;;
74177;SDS011;62540;48.456;-4.456;2023-07-08T12:45:34;0.25;;;0.00;;
74177;SDS011;62540;48.456;-4.456;2023-07-08T12:48:00;0.00;;;0.00;;
74177;SDS011;62540;48.456;-4.456;2023-07-08T12:50:25;1.00;;;1.00;;
74177;SDS011;62540;48.456;-4.456;2023-07-08T12:52:51;0.00;;;0.00;;
74177;SDS011;62540;48.456;-4.456;2023-07-08T12:55:16;0.75;;;0.00;;
74177;SDS011;62540;48.456;-4.456;2023-07-08T12:57:43;1.00;;;0.00;;
74177;SDS011;62540;48.456;-4.456;2023-07-08T13:00:12;0.00;;;0.00;;
74177;SDS011;62540;48.456;-4.456;2023-07-08T13:02:48;2.25;;;1.00;;
74177;SDS011;62540;48.456;-4.456;2023-07-08T13:05:24;0.50;;;0.00;;
74177;SDS011;62540;48.456;-4.456;2023-07-08T13:07:51;1.00;;;0.50;;
74177;SDS011;62540;48.456;-4.456;2023-07-08T13:10:20;0.00;;;0.00;;
74177;SDS011;62540;48.456;-4.456;2023-07-08T13:12:50;2.00;;;0.00;;
74177;SDS011;62540;48.456;-4.456;2023-07-08T13:15:22;0.00;;;0.00;;
74177;SDS011;62540;48.456;-4.456;2023-07-08T13:17:52;1.25;;;1.00;;
74177;SDS011;62540;48.456;-4.456;2023-07-08T13:20:17;1.00;;;0.75;;
74177;SDS011;62540;48.456;-4.456;2023-07-08T13:22:46;0.75;;;0.00;;
74177;SDS011;62540;48.456;-4.456;2023-07-08T13:25:17;2.00;;;0.75;;
74177;SDS011;62540;48.456;-4.456;2023-07-08T13:27:54;0.25;;;0.25;;
74177;SDS011;62540;48.456;-4.456;2023-07-08T13:31:17;1.00;;;0.50;;
74177;SDS011;62540;48.456;-4.456;2023-07-08T13:33:54;2.00;;;0.00;;
74177;SDS011;62540;48.456;-4.456;2023-07-08T13:36:24;0.00;;;0.00;;
74177;SDS011;62540;48.456;-4.456;2023-07-08T13:38:56;2.00;;;0.00;;
74177;SDS011;62540;48.456;-4.456;2023-07-08T13:41:22;0.00;;;0.00;;
74177;SDS011;62540;48.456;-4.456;2023-07-08T13:43:49;1.00;;;0.00;;
74177;SDS011;62540;48.456;-4.456;2023-07-08T13:46:25;0.25;;;0.25;;
74177;SDS011;62540;48.456;-4.456;2023-07-08T13:48:55;1.25;;;0.00;;
74177;SDS011;62540;48.456;-4.456;2023-07-08T13:51:21;1.00;;;0.00;;
74177;SDS011;62540;48.456;-4.456;2023-07-08T13:53:49;0.00;;;0.00;;
74177;SDS011;62540;48.456;-4.456;2023-07-08T13:59:00;1.75;;;1.00;;
74177;SDS011;62540;48.456;-4.456;2023-07-08T14:01:34;0.00;;;0.00;;
74177;SDS011;62540;48.456;-4.456;2023-07-08T14:04:03;0.50;;;0.00;;
74177;SDS011;62540;48.456;-4.456;2023-07-08T14:06:32;1.00;;;0.00;;
74177;SDS011;62540;48.456;-4.456;2023-07-08T14:09:00;0.00;;;0.00;;
74177;SDS011;62540;48.456;-4.456;2023-07-08T14:11:34;1.50;;;0.00;;
74177;SDS011;62540;48.456;-4.456;2023-07-08T14:13:59;1.00;;;0.00;;
74177;SDS011;62540;48.456;-4.456;2023-07-08T14:16:25;0.00;;;0.00;;
74177;SDS011;62540;48.456;-4.456;2023-07-08T14:18:57;1.00;;;1.00;;
74177;SDS011;62540;48.456;-4.456;2023-07-08T14:21:24;1.00;;;0.50;;
74177;SDS011;62540;48.456;-4.456;2023-07-08T14:23:50;1.00;;;0.75;;
74177;SDS011;62540;48.456;-4.456;2023-07-08T14:26:15;0.00;;;0.00;;
74177;SDS011;62540;48.456;-4.456;2023-07-08T14:28:41;1.25;;;0.75;;
74177;SDS011;62540;48.456;-4.456;2023-07-08T14:31:10;0.75;;;0.75;;
74177;SDS011;62540;48.456;-4.456;2023-07-08T14:33:37;1.75;;;0.50;;
74177;SDS011;62540;48.456;-4.456;2023-07-08T14:36:07;0.75;;;0.00;;
74177;SDS011;62540;48.456;-4.456;2023-07-08T14:38:35;0.75;;;0.50;;
74177;SDS011;62540;48.456;-4.456;2023-07-08T14:41:01;1.00;;;1.00;;
74177;SDS011;62540;48.456;-4.456;2023-07-08T14:43:28;1.75;;;0.75;;
74177;SDS011;62540;48.456;-4.456;2023-07-08T14:45:58;1.75;;;1.00;;
74177;SDS011;62540;48.456;-4.456;2023-07-08T14:48:27;1.50;;;0.00;;
74177;SDS011;62540;48.456;-4.456;2023-07-08T14:50:54;0.50;;;0.50;;
74177;SDS011;62540;48.456;-4.456;2023-07-08T14:53:19;0.25;;;0.25;;
74177;SDS011;62540;48.456;-4.456;2023-07-08T14:55:46;1.50;;;0.50;;
74177;SDS011;62540;48.456;-4.456;2023-07-08T14:58:32;0.75;;;0.00;;
74177;SDS011;62540;48.456;-4.456;2023-07-08T15:01:04;1.00;;;1.00;;
74177;SDS011;62540;48.456;-4.456;2023-07-08T15:03:36;1.25;;;0.00;;
74177;SDS011;62540;48.456;-4.456;2023-07-08T15:06:02;1.00;;;1.00;;
74177;SDS011;62540;48.456;-4.456;2023-07-08T15:08:27;1.50;;;0.75;;
74177;SDS011;62540;48.456;-4.456;2023-07-08T15:10:53;0.50;;;0.00;;
74177;SDS011;62540;48.456;-4.456;2023-07-08T15:13:19;0.00;;;0.00;;
74177;SDS011;62540;48.456;-4.456;2023-07-08T15:15:49;1.00;;;0.00;;
74177;SDS011;62540;48.456;-4.456;2023-07-08T15:18:15;3.00;;;0.25;;
74177;SDS011;62540;48.456;-4.456;2023-07-08T15:20:42;0.75;;;0.00;;
74177;SDS011;62540;48.456;-4.456;2023-07-08T15:23:11;0.25;;;0.00;;
74177;SDS011;62540;48.456;-4.456;2023-07-08T15:25:37;1.00;;;0.00;;
74177;SDS011;62540;48.456;-4.456;2023-07-08T15:28:07;1.50;;;1.00;;
74177;SDS011;62540;48.456;-4.456;2023-07-08T15:30:40;1.50;;;1.00;;
74177;SDS011;62540;48.456;-4.456;2023-07-08T15:33:07;1.25;;;0.00;;
74177;SDS011;62540;48.456;-4.456;2023-07-08T15:35:34;0.00;;;0.00;;
74177;SDS011;62540;48.456;-4.456;2023-07-08T15:37:59;0.50;;;0.00;;
74177;SDS011;62540;48.456;-4.456;2023-07-08T15:40:28;1.00;;;0.00;;
74177;SDS011;62540;48.456;-4.456;2023-07-08T15:42:56;0.50;;;0.00;;
74177;SDS011;62540;48.456;-4.456;2023-07-08T15:47:54;1.50;;;1.00;;